Time;durP1;ratioP1;P1;durP2;ratioP2;P2;SDS_P1;SDS_P2;PMS_P1;PMS_P2;Temp;Humidity;BMP_temperature;BMP_pressure;BME280_temperature;BME280_humidity;BME280_pressure;Samples;Min_cycle;Max_cycle;Signal;HPM_P1;HPM_P2
2024/01/29 00:01:30;;;;;;;120.75;111.28;;;8.30;99.90;;;;;;5039860;28;20044;-73
2024/01/29 00:03:56;;;;;;;121.78;112.30;;;8.30;99.90;;;;;;5014061;28;20033;-73
2024/01/29 00:06:22;;;;;;;135.80;125.63;;;8.30;99.90;;;;;;5049341;28;20088;-72
2024/01/29 00:08:52;;;;;;;122.90;112.95;;;8.30;99.90;;;;;;5052008;28;20025;-72
2024/01/29 00:11:19;;;;;;;123.75;113.90;;;8.30;99.90;;;;;;5051659;28;20510;-73
2024/01/29 00:13:46;;;;;;;122.95;113.47;;;8.30;99.90;;;;;;5051502;28;20395;-73
2024/01/29 00:16:12;;;;;;;113.63;104.80;;;8.30;99.90;;;;;;5050404;28;20038;-73
2024/01/29 00:18:38;;;;;;;119.25;109.82;;;8.20;99.90;;;;;;5013972;28;20503;-73
2024/01/29 00:21:05;;;;;;;133.18;123.40;;;8.20;99.90;;;;;;5039200;28;20029;-73
2024/01/29 00:23:31;;;;;;;102.05;93.50;;;8.20;99.90;;;;;;5052093;28;20486;-73
2024/01/29 00:25:57;;;;;;;104.63;96.20;;;8.00;99.90;;;;;;5051416;28;20030;-72
2024/01/29 00:28:24;;;;;;;113.47;104.85;;;8.00;99.90;;;;;;5051886;28;20494;-73
2024/01/29 00:30:50;;;;;;;106.45;98.65;;;8.10;99.90;;;;;;5050751;28;20045;-73
2024/01/29 00:33:16;;;;;;;136.82;126.82;;;8.00;99.90;;;;;;5051375;28;20519;-73
2024/01/29 00:35:42;;;;;;;97.53;89.78;;;8.00;99.90;;;;;;5054836;28;20036;-72
2024/01/29 00:38:08;;;;;;;104.28;95.63;;;8.00;99.90;;;;;;5055605;28;20040;-73
2024/01/29 00:40:34;;;;;;;98.50;90.88;;;8.00;99.90;;;;;;5054840;28;20040;-73
2024/01/29 00:43:01;;;;;;;100.47;92.90;;;7.90;99.90;;;;;;5055774;28;20073;-72
2024/01/29 00:45:27;;;;;;;81.15;74.70;;;7.90;99.90;;;;;;5054033;28;20438;-73
2024/01/29 00:47:53;;;;;;;69.45;63.30;;;7.80;99.90;;;;;;5036887;28;20089;-72
2024/01/29 00:50:19;;;;;;;111.82;103.50;;;7.80;99.90;;;;;;5055248;28;20059;-72
2024/01/29 00:52:45;;;;;;;94.00;86.90;;;7.90;99.90;;;;;;5055437;28;20045;-73
2024/01/29 00:55:12;;;;;;;81.82;75.15;;;7.90;99.90;;;;;;5037361;28;20391;-73
2024/01/29 00:57:38;;;;;;;80.80;74.43;;;8.00;99.90;;;;;;5055270;28;20033;-72
2024/01/29 01:00:06;;;;;;;87.80;80.45;;;8.00;99.90;;;;;;5037372;28;20039;-72
2024/01/29 01:02:33;;;;;;;79.55;72.80;;;8.10;99.90;;;;;;5054738;28;20044;-72
2024/01/29 01:04:59;;;;;;;76.88;70.78;;;7.90;99.90;;;;;;5049172;28;20013;-72
2024/01/29 01:07:25;;;;;;;74.85;68.30;;;7.90;99.90;;;;;;5053779;28;20037;-72
2024/01/29 01:09:51;;;;;;;70.85;64.85;;;7.80;99.90;;;;;;5055074;28;20060;-73
2024/01/29 01:12:17;;;;;;;68.53;62.97;;;7.80;99.90;;;;;;5053916;28;20514;-72
2024/01/29 01:14:43;;;;;;;86.35;79.43;;;7.90;99.90;;;;;;5055160;28;20021;-73
2024/01/29 01:17:10;;;;;;;71.30;65.13;;;7.90;99.90;;;;;;5054640;28;20033;-72
2024/01/29 01:19:36;;;;;;;71.45;65.82;;;7.90;99.90;;;;;;5055142;28;20499;-73
2024/01/29 01:22:02;;;;;;;101.63;94.00;;;8.00;99.90;;;;;;5054715;28;20043;-73
2024/01/29 01:24:28;;;;;;;81.75;75.80;;;7.90;99.90;;;;;;5054558;28;20041;-73
2024/01/29 01:26:54;;;;;;;66.55;60.85;;;7.90;99.90;;;;;;5054475;28;20029;-72
2024/01/29 01:29:20;;;;;;;77.33;71.47;;;8.00;99.90;;;;;;5054895;28;20036;-72
2024/01/29 01:31:46;;;;;;;56.40;51.50;;;8.00;99.90;;;;;;5053935;28;20056;-72
2024/01/29 01:34:12;;;;;;;61.65;56.53;;;8.00;99.90;;;;;;5054860;28;20037;-72
2024/01/29 01:36:38;;;;;;;75.32;69.40;;;8.10;99.90;;;;;;5054653;28;20352;-72
2024/01/29 01:39:04;;;;;;;70.20;64.88;;;8.10;99.90;;;;;;5054735;28;20029;-72
2024/01/29 01:41:30;;;;;;;80.50;74.72;;;8.10;99.90;;;;;;5053339;28;20491;-73
2024/01/29 01:43:57;;;;;;;77.15;71.45;;;8.20;99.90;;;;;;5054656;28;20029;-72
2024/01/29 01:46:23;;;;;;;91.72;85.65;;;8.20;99.90;;;;;;5053303;28;20049;-73
2024/01/29 01:48:54;;;;;;;84.28;78.68;;;8.20;99.90;;;;;;5054788;28;20044;-72
2024/01/29 01:51:21;;;;;;;;;;;8.10;99.90;;;;;;5053789;28;20395;-73
2024/01/29 01:53:47;;;;;;;82.20;76.55;;;8.20;99.90;;;;;;5053785;28;19905;-72
2024/01/29 01:56:13;;;;;;;81.88;76.28;;;8.20;99.90;;;;;;5019749;28;20045;-72
2024/01/29 01:58:41;;;;;;;92.85;86.32;;;8.20;99.90;;;;;;5020424;28;20034;-72
2024/01/29 02:01:08;;;;;;;91.47;85.60;;;8.10;99.90;;;;;;5027410;28;20044;-72
2024/01/29 02:03:34;;;;;;;98.55;91.93;;;8.10;99.90;;;;;;5033529;28;20041;-72
2024/01/29 02:06:00;;;;;;;88.32;81.97;;;8.20;99.90;;;;;;5030682;28;20025;-72
2024/01/29 02:08:26;;;;;;;96.72;90.72;;;8.20;99.90;;;;;;5054181;28;20028;-72
2024/01/29 02:10:54;;;;;;;102.28;95.30;;;8.10;99.90;;;;;;5032059;28;20046;-73
2024/01/29 02:13:20;;;;;;;107.35;100.22;;;8.10;99.90;;;;;;5033937;28;20058;-72
2024/01/29 02:15:46;;;;;;;126.55;118.65;;;8.10;99.90;;;;;;5028364;28;20033;-72
2024/01/29 02:18:12;;;;;;;116.40;109.25;;;8.10;99.90;;;;;;5030769;28;20041;-72
2024/01/29 02:20:38;;;;;;;104.90;98.35;;;8.10;99.90;;;;;;5033722;28;20025;-72
2024/01/29 02:23:04;;;;;;;116.45;109.15;;;8.10;99.90;;;;;;5034056;28;20460;-72
2024/01/29 02:25:30;;;;;;;113.20;106.25;;;8.10;99.90;;;;;;5033285;28;20029;-72
2024/01/29 02:27:56;;;;;;;121.55;114.35;;;8.10;99.90;;;;;;5033836;28;20030;-72
2024/01/29 02:30:22;;;;;;;117.93;111.07;;;8.10;99.90;;;;;;5033036;28;20033;-72
2024/01/29 02:32:48;;;;;;;151.00;141.48;;;8.10;99.90;;;;;;5032529;28;20045;-72
2024/01/29 02:35:15;;;;;;;129.43;121.68;;;8.10;99.90;;;;;;5033465;28;20017;-72
2024/01/29 02:37:41;;;;;;;112.80;105.57;;;8.00;99.90;;;;;;5033505;28;20044;-71
2024/01/29 02:40:07;;;;;;;126.15;118.72;;;8.00;99.90;;;;;;5033323;28;20025;-72
2024/01/29 02:42:34;;;;;;;119.63;112.60;;;8.00;99.90;;;;;;5032313;28;20034;-72
2024/01/29 02:45:00;;;;;;;108.38;102.00;;;8.00;99.90;;;;;;5033592;28;20032;-72
2024/01/29 02:47:26;;;;;;;121.75;114.32;;;8.00;99.90;;;;;;5033080;28;20087;-72
2024/01/29 02:49:52;;;;;;;143.88;135.27;;;7.90;99.90;;;;;;5033509;28;20030;-72
2024/01/29 02:52:19;;;;;;;134.87;126.87;;;7.90;99.90;;;;;;5032948;28;20061;-72
2024/01/29 02:54:45;;;;;;;97.50;91.22;;;7.90;99.90;;;;;;5033151;28;20041;-72
2024/01/29 02:57:11;;;;;;;86.40;80.90;;;7.90;99.90;;;;;;5013880;28;20511;-72
2024/01/29 02:59:37;;;;;;;71.43;66.72;;;7.80;99.90;;;;;;5013228;28;20030;-72
2024/01/29 03:02:03;;;;;;;99.23;92.73;;;7.80;99.90;;;;;;5014063;28;20045;-72
2024/01/29 03:04:30;;;;;;;114.93;108.07;;;7.90;99.90;;;;;;5019907;28;20045;-72
2024/01/29 03:06:56;;;;;;;98.03;92.05;;;8.00;99.90;;;;;;5023303;28;20518;-72
2024/01/29 03:09:22;;;;;;;97.72;91.57;;;8.00;99.90;;;;;;5020775;28;20045;-72
2024/01/29 03:11:48;;;;;;;68.72;63.60;;;7.80;99.90;;;;;;5050896;28;20044;-72
2024/01/29 03:14:14;;;;;;;65.65;60.90;;;7.80;99.90;;;;;;5051468;28;20395;-72
2024/01/29 03:16:40;;;;;;;81.05;75.53;;;7.80;99.90;;;;;;5050221;28;20033;-72
2024/01/29 03:19:07;;;;;;;64.10;59.75;;;7.80;99.90;;;;;;5051250;28;20032;-72
2024/01/29 03:21:33;;;;;;;78.57;73.17;;;7.90;99.90;;;;;;5050180;28;20045;-72
2024/01/29 03:23:59;;;;;;;83.22;78.07;;;7.90;99.90;;;;;;5050303;28;20088;-72
2024/01/29 03:26:26;;;;;;;83.15;77.72;;;7.90;99.90;;;;;;5032796;28;20037;-72
2024/01/29 03:28:52;;;;;;;90.57;84.82;;;7.90;99.90;;;;;;5050951;28;20051;-72
2024/01/29 03:31:18;;;;;;;71.50;66.67;;;7.90;99.90;;;;;;5050078;28;20052;-72
2024/01/29 03:33:44;;;;;;;59.97;55.80;;;7.90;99.90;;;;;;5051029;28;20044;-72
2024/01/29 03:36:10;;;;;;;116.60;109.38;;;7.70;99.90;;;;;;5050939;28;20044;-72
2024/01/29 03:38:36;;;;;;;103.43;97.43;;;7.50;99.90;;;;;;5034347;28;20033;-72
2024/01/29 03:41:03;;;;;;;149.00;140.40;;;7.40;99.90;;;;;;5034424;28;20025;-72
2024/01/29 03:43:29;;;;;;;138.18;129.90;;;7.40;99.90;;;;;;5052484;28;20033;-72
2024/01/29 03:45:55;;;;;;;158.55;149.05;;;7.50;99.90;;;;;;5051572;28;20483;-72
2024/01/29 03:48:22;;;;;;;118.05;110.65;;;7.70;99.90;;;;;;5052420;28;20036;-72
2024/01/29 03:50:48;;;;;;;134.63;126.45;;;7.70;99.90;;;;;;5051844;28;20056;-72
2024/01/29 03:53:14;;;;;;;123.53;116.17;;;7.60;99.90;;;;;;5051866;28;20041;-72
2024/01/29 03:55:41;;;;;;;100.65;94.35;;;7.50;99.90;;;;;;5052047;28;20040;-72
2024/01/29 03:58:07;;;;;;;96.50;90.10;;;7.40;99.90;;;;;;5052251;28;20087;-72
2024/01/29 04:00:33;;;;;;;87.07;81.37;;;7.30;99.90;;;;;;5033215;28;20033;-72
2024/01/29 04:02:59;;;;;;;89.90;83.97;;;7.40;99.90;;;;;;5052126;28;20368;-71
2024/01/29 04:05:25;;;;;;;161.65;152.57;;;7.40;99.90;;;;;;5031779;28;20033;-72
2024/01/29 04:07:51;;;;;;;207.75;196.38;;;7.50;99.90;;;;;;5031839;28;20037;-72
2024/01/29 04:10:18;;;;;;;185.85;175.30;;;7.60;99.90;;;;;;5031770;28;20506;-72
2024/01/29 04:12:44;;;;;;;197.35;186.55;;;7.60;99.90;;;;;;5031755;28;20053;-72
2024/01/29 04:15:10;;;;;;;134.30;126.60;;;7.60;99.90;;;;;;5031372;28;20036;-72
2024/01/29 04:17:36;;;;;;;164.07;154.93;;;7.70;99.90;;;;;;5043827;28;20029;-72
2024/01/29 04:20:03;;;;;;;180.45;170.50;;;7.80;99.90;;;;;;5033788;28;20033;-72
2024/01/29 04:22:29;;;;;;;109.25;102.80;;;7.90;99.90;;;;;;5031368;28;20045;-72
2024/01/29 04:24:55;;;;;;;146.52;138.10;;;8.00;99.90;;;;;;5032256;28;20360;-72
2024/01/29 04:27:21;;;;;;;127.40;120.05;;;8.00;99.90;;;;;;5031054;28;20052;-72
2024/01/29 04:29:47;;;;;;;135.02;127.35;;;8.00;99.90;;;;;;5031171;28;20037;-72
2024/01/29 04:32:13;;;;;;;149.75;141.35;;;7.90;99.90;;;;;;5031239;28;20053;-72
2024/01/29 04:34:40;;;;;;;174.82;165.07;;;7.90;99.90;;;;;;5014364;28;20391;-72
2024/01/29 04:37:06;;;;;;;124.90;117.63;;;7.80;99.90;;;;;;5031366;28;20041;-72
2024/01/29 04:39:32;;;;;;;91.90;86.32;;;7.80;99.90;;;;;;5032098;28;20029;-72
2024/01/29 04:41:58;;;;;;;84.13;78.93;;;7.70;99.90;;;;;;5031556;28;20033;-72
2024/01/29 04:44:25;;;;;;;84.22;79.03;;;7.70;99.90;;;;;;5031842;28;20038;-71
2024/01/29 04:46:51;;;;;;;90.18;84.78;;;7.60;99.90;;;;;;5030380;28;20045;-72
2024/01/29 04:49:17;;;;;;;90.57;85.00;;;7.60;99.90;;;;;;5031942;28;20033;-72
2024/01/29 04:51:43;;;;;;;86.78;81.43;;;7.60;99.90;;;;;;5031115;28;20042;-72
2024/01/29 04:54:09;;;;;;;83.32;77.78;;;7.60;99.90;;;;;;5031743;28;20037;-72
2024/01/29 04:56:35;;;;;;;83.93;78.43;;;7.70;99.90;;;;;;5030899;28;20473;-72
2024/01/29 04:59:01;;;;;;;84.55;79.10;;;7.60;99.90;;;;;;5031592;28;20037;-71
2024/01/29 05:01:27;;;;;;;86.50;81.15;;;7.50;99.90;;;;;;5030569;28;20407;-72
2024/01/29 05:03:54;;;;;;;82.82;77.28;;;7.50;99.90;;;;;;5030826;28;20033;-72
2024/01/29 05:06:20;;;;;;;86.47;81.20;;;7.40;99.90;;;;;;5048031;28;20040;-71
2024/01/29 05:08:46;;;;;;;90.97;85.03;;;7.40;99.90;;;;;;5050844;28;20036;-72
2024/01/29 05:11:12;;;;;;;87.63;82.22;;;7.40;99.90;;;;;;5051102;28;20025;-72
2024/01/29 05:13:38;;;;;;;84.03;78.53;;;7.50;99.90;;;;;;5051436;28;20075;-71
2024/01/29 05:16:06;;;;;;;92.15;86.57;;;7.50;99.90;;;;;;5050559;28;20040;-72
2024/01/29 05:18:33;;;;;;;97.82;92.15;;;7.60;99.90;;;;;;5032982;28;20048;-71
2024/01/29 05:20:59;;;;;;;93.25;87.65;;;7.50;99.90;;;;;;5052992;28;20029;-72
2024/01/29 05:23:25;;;;;;;85.50;80.22;;;7.60;99.90;;;;;;5055240;28;20029;-72
2024/01/29 05:25:51;;;;;;;92.28;86.63;;;7.60;99.90;;;;;;5036908;28;20025;-72
2024/01/29 05:28:18;;;;;;;82.75;77.93;;;7.60;99.90;;;;;;5054973;28;20372;-72
2024/01/29 05:30:44;;;;;;;97.90;92.15;;;7.60;99.90;;;;;;5053522;28;20040;-72
2024/01/29 05:33:10;;;;;;;105.50;99.28;;;7.70;99.90;;;;;;5054513;28;20033;-72
2024/01/29 05:35:37;;;;;;;159.95;151.10;;;7.70;99.90;;;;;;5054713;28;20025;-72
2024/01/29 05:38:03;;;;;;;106.60;100.20;;;7.90;99.90;;;;;;5054752;28;20380;-72
2024/01/29 05:40:29;;;;;;;84.78;79.82;;;7.90;99.90;;;;;;5033604;28;20049;-72
2024/01/29 05:42:56;;;;;;;93.22;87.53;;;8.00;99.90;;;;;;5034872;28;20030;-72
2024/01/29 05:45:22;;;;;;;81.38;76.30;;;7.80;99.90;;;;;;5033594;28;20034;-72
2024/01/29 05:47:48;;;;;;;95.60;90.00;;;7.70;99.90;;;;;;5034365;28;20030;-72
2024/01/29 05:50:14;;;;;;;87.68;82.30;;;7.90;99.90;;;;;;5034542;28;20376;-72
2024/01/29 05:52:40;;;;;;;90.38;85.18;;;7.70;99.90;;;;;;5034392;28;20491;-72
2024/01/29 05:55:07;;;;;;;76.70;71.82;;;7.60;99.90;;;;;;5034598;28;20030;-72
2024/01/29 05:57:33;;;;;;;102.10;96.22;;;7.50;99.90;;;;;;5034410;28;20396;-72
2024/01/29 05:59:59;;;;;;;110.15;104.03;;;7.40;99.90;;;;;;5034394;28;20033;-73
2024/01/29 06:02:25;;;;;;;108.25;102.07;;;7.30;99.90;;;;;;5033506;28;20508;-72
2024/01/29 06:04:51;;;;;;;115.13;108.57;;;7.30;99.90;;;;;;5039397;28;20036;-73
2024/01/29 06:07:17;;;;;;;109.13;102.68;;;7.20;99.90;;;;;;5053934;28;20048;-73
2024/01/29 06:09:43;;;;;;;102.85;96.93;;;7.10;99.90;;;;;;5054039;28;20048;-72
2024/01/29 06:12:09;;;;;;;135.25;127.90;;;7.20;99.90;;;;;;5053739;28;20036;-72
2024/01/29 06:14:36;;;;;;;101.60;95.60;;;7.30;99.90;;;;;;5054145;28;20060;-72
2024/01/29 06:17:02;;;;;;;114.80;108.32;;;7.30;99.90;;;;;;5052052;28;20036;-72
2024/01/29 06:19:30;;;;;;;102.25;96.35;;;7.20;99.90;;;;;;5054084;28;20492;-72
2024/01/29 06:21:56;;;;;;;104.35;98.15;;;7.30;99.90;;;;;;5053171;28;20037;-73
2024/01/29 06:24:22;;;;;;;122.28;115.35;;;7.30;99.90;;;;;;5036141;28;20044;-72
2024/01/29 06:26:48;;;;;;;117.22;110.60;;;7.30;99.90;;;;;;5053560;28;20033;-72
2024/01/29 06:29:14;;;;;;;150.25;142.13;;;7.40;99.90;;;;;;5053761;28;20033;-72
2024/01/29 06:31:40;;;;;;;78.47;73.78;;;7.50;99.90;;;;;;5051643;28;20037;-72
2024/01/29 06:34:06;;;;;;;85.25;80.28;;;7.50;99.90;;;;;;5053678;28;20049;-72
2024/01/29 06:36:32;;;;;;;99.05;93.30;;;7.60;99.90;;;;;;5052961;28;20364;-72
2024/01/29 06:38:59;;;;;;;82.50;77.57;;;7.50;99.90;;;;;;5053756;28;20033;-72
2024/01/29 06:41:25;;;;;;;88.07;82.85;;;7.50;99.90;;;;;;5053174;28;20033;-72
2024/01/29 06:43:52;;;;;;;102.57;96.60;;;7.50;99.90;;;;;;5053405;28;20036;-72
2024/01/29 06:46:18;;;;;;;121.75;114.75;;;7.40;99.90;;;;;;5051674;28;20048;-72
2024/01/29 06:48:44;;;;;;;122.33;115.07;;;7.40;99.90;;;;;;5052733;28;20037;-72
2024/01/29 06:51:11;;;;;;;125.33;118.33;;;7.30;99.90;;;;;;5053104;28;20044;-72
2024/01/29 06:53:37;;;;;;;111.83;105.43;;;7.40;99.90;;;;;;5053277;28;20515;-73
2024/01/29 06:56:06;;;;;;;87.23;81.70;;;7.40;99.90;;;;;;5053095;28;20033;-72
2024/01/29 06:58:33;;;;;;;106.70;100.18;;;7.30;99.90;;;;;;5036011;28;20041;-72
2024/01/29 07:00:59;;;;;;;116.43;109.82;;;7.40;99.90;;;;;;5051961;28;20033;-72
2024/01/29 07:03:26;;;;;;;99.40;93.32;;;7.40;99.90;;;;;;5035426;28;20033;-72
2024/01/29 07:05:52;;;;;;;94.65;89.07;;;7.40;99.90;;;;;;5046656;28;20033;-72
2024/01/29 07:08:18;;;;;;;101.63;95.78;;;7.40;99.90;;;;;;5033422;28;20038;-72
2024/01/29 07:10:45;;;;;;;117.18;110.40;;;7.40;99.90;;;;;;5032668;28;20063;-73
2024/01/29 07:13:11;;;;;;;153.20;144.67;;;7.40;99.90;;;;;;5032952;28;20042;-72
2024/01/29 07:15:38;;;;;;;126.57;119.40;;;7.40;99.90;;;;;;5032267;28;20038;-72
2024/01/29 07:18:04;;;;;;;114.40;107.80;;;7.40;99.90;;;;;;5047874;28;20402;-72
2024/01/29 07:20:38;;;;;;;125.15;118.10;;;7.30;99.90;;;;;;5052359;28;20052;-72
2024/01/29 07:23:05;;;;;;;137.25;129.32;;;7.30;99.90;;;;;;5052135;28;20511;-72
2024/01/29 07:25:31;;;;;;;248.40;234.85;;;7.30;99.90;;;;;;5052521;28;20399;-72
2024/01/29 07:28:00;;;;;;;160.10;150.90;;;7.30;99.90;;;;;;5034875;28;20056;-72
2024/01/29 07:30:26;;;;;;;150.70;142.20;;;7.30;99.90;;;;;;5033565;28;20039;-72
2024/01/29 07:32:52;;;;;;;87.90;82.35;;;7.30;99.90;;;;;;5051968;28;20479;-72
2024/01/29 07:35:18;;;;;;;89.82;84.15;;;7.30;99.90;;;;;;5052489;28;20029;-73
2024/01/29 07:37:44;;;;;;;137.52;129.75;;;7.20;99.90;;;;;;5052693;28;20471;-72
2024/01/29 07:40:11;;;;;;;203.73;192.20;;;7.30;99.90;;;;;;5052553;28;20037;-72
2024/01/29 07:42:37;;;;;;;161.05;151.75;;;7.30;99.90;;;;;;5034479;28;20033;-72
2024/01/29 07:45:03;;;;;;;150.75;141.95;;;7.40;99.90;;;;;;5051542;28;20463;-72
2024/01/29 07:47:29;;;;;;;141.05;132.70;;;7.50;99.90;;;;;;5052426;28;20464;-72
2024/01/29 07:49:56;;;;;;;137.30;129.32;;;7.50;99.90;;;;;;5052464;28;20033;-72
2024/01/29 07:52:22;;;;;;;113.63;106.82;;;7.60;99.90;;;;;;5052049;28;20387;-72
2024/01/29 07:54:48;;;;;;;151.63;142.80;;;7.60;99.90;;;;;;5052396;28;20040;-72
2024/01/29 07:57:14;;;;;;;118.43;111.30;;;7.60;99.90;;;;;;5052294;28;20467;-72
2024/01/29 07:59:40;;;;;;;98.60;92.68;;;7.60;99.90;;;;;;5051998;28;20029;-72
2024/01/29 08:02:06;;;;;;;101.57;95.43;;;7.50;99.90;;;;;;5051789;28;20403;-72
2024/01/29 08:04:32;;;;;;;83.15;77.93;;;7.40;99.90;;;;;;5034478;28;20029;-73
2024/01/29 08:06:59;;;;;;;109.00;102.28;;;7.40;99.90;;;;;;5052056;28;20061;-73
2024/01/29 08:09:28;;;;;;;120.07;112.60;;;7.40;99.90;;;;;;5051813;28;20044;-72
2024/01/29 08:11:54;;;;;;;104.03;96.82;;;7.40;99.90;;;;;;5051295;28;20045;-72
2024/01/29 08:14:21;;;;;;;101.85;95.65;;;7.40;99.90;;;;;;5051787;28;20049;-73
2024/01/29 08:16:47;;;;;;;84.05;78.90;;;7.40;99.90;;;;;;5050955;28;20044;-73
2024/01/29 08:19:13;;;;;;;109.53;103.13;;;7.30;99.90;;;;;;5052046;28;20044;-72
2024/01/29 08:21:39;;;;;;;108.73;102.17;;;7.40;99.90;;;;;;5042727;28;20468;-72
2024/01/29 08:24:06;;;;;;;81.70;76.55;;;7.30;99.90;;;;;;5032132;28;20040;-72
2024/01/29 08:26:32;;;;;;;115.75;109.22;;;7.20;99.90;;;;;;5031388;28;20042;-72
2024/01/29 08:28:58;;;;;;;94.30;88.40;;;7.20;99.90;;;;;;5031632;28;20033;-72
2024/01/29 08:31:25;;;;;;;116.73;109.53;;;7.20;99.90;;;;;;5031214;28;20034;-73
2024/01/29 08:33:51;;;;;;;138.18;130.10;;;7.20;99.90;;;;;;5031867;28;20038;-72
2024/01/29 08:36:20;;;;;;;110.05;102.82;;;7.20;99.90;;;;;;5031749;28;20029;-72
2024/01/29 08:38:46;;;;;;;109.15;102.72;;;7.30;99.90;;;;;;5031505;28;20041;-72
2024/01/29 08:41:13;;;;;;;107.32;100.80;;;7.30;99.90;;;;;;5031082;28;20042;-72
2024/01/29 08:43:39;;;;;;;132.95;124.88;;;7.40;99.90;;;;;;5031591;28;20468;-72
2024/01/29 08:46:06;;;;;;;118.20;110.60;;;7.40;99.90;;;;;;5031183;28;20034;-72
2024/01/29 08:48:32;;;;;;;112.78;105.18;;;7.60;99.90;;;;;;5014512;28;20030;-72
2024/01/29 08:50:59;;;;;;;178.30;167.52;;;7.60;99.90;;;;;;5031644;28;20021;-72
2024/01/29 08:53:25;;;;;;;130.75;122.40;;;7.60;99.90;;;;;;5014177;28;20396;-72
2024/01/29 08:55:51;;;;;;;139.73;130.95;;;7.60;99.90;;;;;;5032707;28;20507;-72
2024/01/29 08:58:18;;;;;;;154.15;144.85;;;7.70;99.90;;;;;;5035475;28;20041;-72
2024/01/29 09:00:44;;;;;;;195.38;183.70;;;7.70;99.90;;;;;;5017083;28;20503;-72
2024/01/29 09:03:10;;;;;;;122.85;115.00;;;7.70;99.90;;;;;;5035406;28;20034;-73
2024/01/29 09:05:38;;;;;;;122.88;115.57;;;7.80;99.90;;;;;;5045762;28;20395;-73
2024/01/29 09:08:05;;;;;;;101.03;94.82;;;7.80;99.90;;;;;;5054717;28;20067;-73
2024/01/29 09:10:32;;;;;;;93.53;87.45;;;7.90;99.90;;;;;;5017014;28;20048;-72
2024/01/29 09:12:58;;;;;;;86.00;80.50;;;8.00;99.90;;;;;;5015447;28;20041;-72
2024/01/29 09:15:24;;;;;;;104.20;98.28;;;8.00;99.90;;;;;;5014750;28;20041;-72
2024/01/29 09:17:50;;;;;;;107.72;101.65;;;8.10;99.90;;;;;;5028634;28;20046;-72
2024/01/29 09:20:16;;;;;;;165.55;156.43;;;8.10;99.90;;;;;;5034793;28;20029;-73
2024/01/29 09:22:42;;;;;;;117.55;110.28;;;8.20;99.90;;;;;;5034483;28;20407;-72
2024/01/29 09:25:08;;;;;;;101.13;95.28;;;8.30;99.90;;;;;;5034620;28;20034;-73
2024/01/29 09:27:35;;;;;;;139.80;131.95;;;8.40;99.90;;;;;;5015267;28;20049;-72
2024/01/29 09:30:03;;;;;;;210.88;196.15;;;8.50;99.90;;;;;;5014787;28;20412;-73
2024/01/29 09:32:30;;;;;;;570.45;536.00;;;8.60;99.90;;;;;;5013636;28;20034;-73
2024/01/29 09:34:56;;;;;;;518.13;487.55;;;8.70;99.90;;;;;;5015069;28;20042;-72
2024/01/29 09:37:22;;;;;;;171.55;161.90;;;8.90;99.90;;;;;;5014640;28;20415;-73
2024/01/29 09:39:50;;;;;;;163.15;153.68;;;9.00;99.90;;;;;;5014742;28;20026;-72
2024/01/29 09:42:24;;;;;;;175.05;165.15;;;9.10;99.90;;;;;;5014156;28;20053;-73
2024/01/29 09:44:52;;;;;;;118.90;112.43;;;9.20;99.90;;;;;;5015010;28;20034;-73
2024/01/29 09:47:18;;;;;;;152.13;143.88;;;9.30;99.90;;;;;;4980437;28;20674;-72
2024/01/29 09:49:44;;;;;;;157.55;148.75;;;9.40;99.90;;;;;;4997283;28;20026;-73
2024/01/29 09:52:14;;;;;;;147.70;139.70;;;9.40;99.90;;;;;;4997029;28;20120;-73
2024/01/29 09:54:40;;;;;;;199.85;189.07;;;9.50;99.90;;;;;;5013808;28;20056;-73
2024/01/29 09:57:11;;;;;;;124.90;117.93;;;9.50;99.90;;;;;;4996455;28;20042;-73
2024/01/29 09:59:38;;;;;;;132.98;125.95;;;9.60;99.90;;;;;;4996764;28;20038;-73
2024/01/29 10:02:04;;;;;;;120.00;113.60;;;9.70;99.90;;;;;;5013761;28;20042;-72
2024/01/29 10:04:30;;;;;;;136.98;129.60;;;9.80;99.90;;;;;;4999329;28;20476;-73
2024/01/29 10:06:56;;;;;;;103.53;98.13;;;9.90;99.90;;;;;;5033933;28;20036;-72
2024/01/29 10:09:22;;;;;;;113.78;107.72;;;9.90;99.90;;;;;;5040425;28;20471;-72
2024/01/29 10:11:49;;;;;;;188.65;178.82;;;10.00;99.90;;;;;;5040280;28;20040;-73
2024/01/29 10:14:16;;;;;;;201.52;191.05;;;10.00;99.90;;;;;;5034248;28;20037;-73
2024/01/29 10:16:42;;;;;;;171.65;162.50;;;10.10;99.90;;;;;;5037369;28;20037;-73
2024/01/29 10:19:09;;;;;;;155.43;147.30;;;10.20;99.90;;;;;;5053302;28;20471;-73
2024/01/29 10:21:40;;;;;;;147.75;139.90;;;10.30;99.90;;;;;;5052807;28;20052;-73
2024/01/29 10:24:12;;;;;;;112.90;106.97;;;10.40;99.90;;;;;;5053224;28;20048;-73
2024/01/29 10:26:38;;;;;;;120.90;114.43;;;10.40;99.90;;;;;;5053283;28;20510;-73
2024/01/29 10:29:06;;;;;;;131.43;124.57;;;10.50;99.90;;;;;;5036120;28;20024;-73
2024/01/29 10:31:32;;;;;;;214.32;202.65;;;10.50;99.90;;;;;;5018418;28;20037;-72
2024/01/29 10:33:59;;;;;;;127.45;120.78;;;10.60;99.90;;;;;;5053662;28;20747;-73
2024/01/29 10:36:26;;;;;;;170.40;161.45;;;10.70;99.90;;;;;;5053354;28;20488;-73
2024/01/29 10:38:52;;;;;;;1999.90;999.90;;;10.80;99.90;;;;;;5053496;28;20036;-73
2024/01/29 10:41:21;;;;;;;173.23;163.95;;;10.90;99.90;;;;;;5053045;28;20048;-73
2024/01/29 10:43:48;;;;;;;1999.90;999.90;;;11.10;99.90;;;;;;5052928;28;20041;-73
2024/01/29 10:46:21;;;;;;;1999.90;999.90;;;11.10;99.90;;;;;;5052169;28;20395;-73
2024/01/29 10:48:48;;;;;;;1999.90;999.90;;;11.20;99.90;;;;;;5052973;28;20538;-73
2024/01/29 10:51:15;;;;;;;147.38;139.82;;;11.30;99.90;;;;;;5035344;28;20025;-73
2024/01/29 10:53:41;;;;;;;1999.90;999.90;;;11.40;99.90;;;;;;5052942;28;20037;-73
2024/01/29 10:56:08;;;;;;;1999.90;999.90;;;11.50;99.90;;;;;;5052960;28;20040;-72
2024/01/29 10:58:36;;;;;;;1999.90;999.90;;;11.60;99.90;;;;;;5052650;28;20036;-73
2024/01/29 11:01:03;;;;;;;163.82;155.32;;;11.80;99.90;;;;;;5044985;28;20480;-72
2024/01/29 11:03:29;;;;;;;203.63;193.18;;;11.90;99.90;;;;;;5015900;28;20472;-73
2024/01/29 11:06:08;;;;;;;75.38;71.15;;;12.00;99.90;;;;;;5046628;28;20029;-73
2024/01/29 11:08:35;;;;;;;1999.90;999.90;;;12.00;99.90;;;;;;5035005;28;20036;-73
2024/01/29 11:11:01;;;;;;;1999.90;999.90;;;12.20;99.90;;;;;;5018498;28;20064;-72
2024/01/29 11:13:28;;;;;;;1999.90;999.90;;;12.40;99.90;;;;;;5018893;28;20041;-73
2024/01/29 11:15:54;;;;;;;1999.90;999.90;;;12.50;99.90;;;;;;5034430;28;20028;-73
2024/01/29 11:18:20;;;;;;;1999.90;999.90;;;12.60;99.90;;;;;;5033938;28;20497;-73
2024/01/29 11:20:50;;;;;;;1999.90;999.90;;;12.80;99.90;;;;;;5052188;28;20028;-78
2024/01/29 11:23:16;;;;;;;1999.90;999.90;;;12.90;99.90;;;;;;5052305;28;20024;-77
2024/01/29 11:25:42;;;;;;;1999.90;999.90;;;12.90;99.90;;;;;;5030455;28;20041;-76
2024/01/29 11:28:09;;;;;;;1999.90;999.90;;;13.00;99.90;;;;;;5033032;28;20026;-71
2024/01/29 11:30:35;;;;;;;1999.90;999.90;;;13.00;99.90;;;;;;5013951;28;20026;-73
2024/01/29 11:33:16;;;;;;;1999.90;999.90;;;13.10;99.90;;;;;;5014994;28;20075;-73
2024/01/29 11:35:42;;;;;;;1999.90;999.90;;;13.20;99.90;;;;;;5015075;28;20038;-72
2024/01/29 11:38:09;;;;;;;1999.90;999.90;;;13.20;99.90;;;;;;5015334;28;20030;-74
2024/01/29 11:40:38;;;;;;;1999.90;999.90;;;13.20;99.90;;;;;;5014714;28;20472;-76
2024/01/29 11:43:18;;;;;;;1999.90;999.90;;;13.20;99.90;;;;;;5014902;28;20392;-75
2024/01/29 11:45:52;;;;;;;1999.90;999.90;;;13.30;99.90;;;;;;5031960;28;20040;-76
2024/01/29 11:48:20;;;;;;;1999.90;999.90;;;13.50;99.90;;;;;;5046217;28;20372;-74
2024/01/29 11:50:48;;;;;;;1999.90;999.90;;;13.60;99.90;;;;;;5031406;28;20028;-74
2024/01/29 11:53:15;;;;;;;1999.90;999.90;;;13.60;99.90;;;;;;5052209;28;20423;-74
2024/01/29 11:55:42;;;;;;;1999.90;999.90;;;13.60;99.90;;;;;;5047028;28;20049;-73
2024/01/29 11:58:16;;;;;;;1999.90;999.90;;;13.50;99.90;;;;;;5045629;28;20032;-74
2024/01/29 12:00:43;;;;;;;1999.90;999.90;;;13.50;99.90;;;;;;5049050;28;20029;-74
2024/01/29 12:03:10;;;;;;;1999.90;999.90;;;13.50;99.90;;;;;;5050113;28;20033;-74
2024/01/29 12:05:37;;;;;;;1999.90;999.90;;;13.50;99.90;;;;;;5025099;28;20041;-74
2024/01/29 12:08:03;;;;;;;1999.90;999.90;;;13.50;99.90;;;;;;5051346;28;20045;-74
2024/01/29 12:10:29;;;;;;;1999.90;999.90;;;13.60;99.90;;;;;;5050523;28;20052;-74
2024/01/29 12:12:56;;;;;;;1999.90;999.90;;;13.70;99.90;;;;;;5051421;28;20044;-74
2024/01/29 12:15:22;;;;;;;1999.90;999.90;;;13.70;99.90;;;;;;5051076;28;20041;-74
2024/01/29 12:17:49;;;;;;;1999.90;999.90;;;13.70;99.90;;;;;;5033736;28;20368;-74
2024/01/29 12:20:15;;;;;;;1999.90;999.90;;;13.70;99.90;;;;;;5050911;28;20025;-74